createdAt,value
2022-12-31T00:00:34.791Z,47.96
2022-12-31T00:03:03.187Z,48.44
2022-12-31T00:05:32.062Z,47.88
2022-12-31T00:07:59.219Z,48.18
2022-12-31T00:10:26.522Z,47.57
2022-12-31T00:12:54.028Z,47.58
2022-12-31T00:15:21.539Z,47.64
2022-12-31T00:17:48.881Z,47.68
2022-12-31T00:20:16.710Z,47.15
2022-12-31T00:22:43.914Z,47.25
2022-12-31T00:25:11.102Z,47.83
2022-12-31T00:27:38.775Z,47.91
2022-12-31T00:30:06.439Z,48.14
2022-12-31T00:32:33.798Z,48.34
2022-12-31T00:35:01.043Z,48.14
2022-12-31T00:37:30.193Z,47.90
2022-12-31T00:39:57.340Z,48.50
2022-12-31T00:42:24.569Z,48.51
2022-12-31T00:44:51.718Z,47.96
2022-12-31T00:47:19.015Z,48.18
2022-12-31T00:49:48.008Z,48.23
2022-12-31T00:52:17.004Z,48.55
2022-12-31T00:54:44.657Z,48.25
2022-12-31T00:57:12.294Z,48.22
2022-12-31T00:59:39.756Z,47.88
2022-12-31T01:02:07.049Z,47.90
2022-12-31T01:04:34.749Z,47.96
2022-12-31T01:07:02.218Z,47.51
2022-12-31T01:09:29.470Z,47.63
2022-12-31T01:11:56.953Z,47.35
2022-12-31T01:14:24.213Z,47.23
2022-12-31T01:16:53.555Z,46.89
2022-12-31T01:19:26.350Z,46.78
2022-12-31T01:21:54.596Z,46.95
2022-12-31T01:24:22.382Z,47.27
2022-12-31T01:26:51.080Z,47.27
2022-12-31T01:29:19.871Z,47.43
2022-12-31T01:31:47.195Z,47.52
2022-12-31T01:34:14.933Z,47.85
2022-12-31T01:36:42.199Z,48.27
2022-12-31T01:39:11.115Z,48.68
2022-12-31T01:41:41.753Z,48.98
2022-12-31T01:44:11.933Z,49.30
2022-12-31T01:46:39.399Z,49.15
2022-12-31T01:49:22.888Z,49.33
2022-12-31T01:52:17.571Z,49.56
2022-12-31T01:54:49.849Z,50.04
2022-12-31T01:57:20.668Z,49.98
2022-12-31T01:59:48.037Z,50.07
2022-12-31T02:02:16.538Z,50.44
2022-12-31T02:04:44.069Z,50.70
2022-12-31T02:07:12.711Z,51.02
2022-12-31T02:09:42.363Z,51.09
2022-12-31T02:12:10.702Z,51.14
2022-12-31T02:14:48.297Z,51.73
2022-12-31T02:17:40.257Z,51.68
2022-12-31T02:20:52.462Z,51.72
2022-12-31T02:24:14.052Z,51.43
2022-12-31T02:26:55.171Z,51.62
2022-12-31T02:29:53.428Z,51.11
2022-12-31T02:32:28.481Z,51.69
2022-12-31T02:35:05.893Z,50.58
2022-12-31T02:37:34.017Z,51.59
2022-12-31T02:40:01.552Z,52.22
2022-12-31T02:42:30.447Z,52.12
2022-12-31T02:44:57.599Z,51.53
2022-12-31T02:48:19.337Z,51.25
2022-12-31T02:51:08.223Z,50.55
2022-12-31T02:53:58.815Z,50.08
2022-12-31T02:56:25.922Z,50.38
2022-12-31T02:59:28.441Z,50.35
2022-12-31T03:02:14.336Z,50.13
2022-12-31T03:05:02.507Z,50.43
2022-12-31T03:07:33.035Z,50.90
2022-12-31T03:10:01.602Z,51.00
2022-12-31T03:12:48.841Z,50.51
2022-12-31T03:15:26.642Z,50.73
2022-12-31T03:18:03.222Z,50.83
2022-12-31T03:21:02.475Z,51.00
2022-12-31T03:23:42.338Z,50.62
2022-12-31T03:26:11.586Z,50.49
2022-12-31T03:28:41.432Z,50.13
2022-12-31T03:31:09.250Z,50.37
2022-12-31T03:33:38.708Z,50.82
2022-12-31T03:36:09.116Z,51.33
2022-12-31T03:38:36.475Z,51.80
2022-12-31T03:41:04.351Z,52.09
2022-12-31T03:43:31.912Z,52.98
2022-12-31T03:46:01.767Z,53.12
2022-12-31T03:48:29.499Z,53.57
2022-12-31T03:50:56.746Z,53.85
2022-12-31T03:53:25.628Z,54.28
2022-12-31T03:55:53.746Z,53.98
2022-12-31T03:58:22.017Z,53.59
2022-12-31T04:00:51.193Z,53.66
2022-12-31T04:03:18.680Z,53.88
2022-12-31T04:05:52.955Z,54.31
2022-12-31T04:08:20.099Z,54.57
2022-12-31T04:10:47.992Z,54.65
2022-12-31T04:13:15.120Z,55.55
2022-12-31T04:15:42.470Z,55.89
2022-12-31T04:18:09.868Z,56.46
2022-12-31T04:20:37.118Z,57.41
2022-12-31T04:23:05.929Z,58.66
2022-12-31T04:25:33.735Z,58.93
2022-12-31T04:28:00.965Z,59.73
2022-12-31T04:30:29.333Z,59.10
2022-12-31T04:32:56.676Z,59.19
2022-12-31T04:35:24.087Z,58.32
2022-12-31T04:37:51.401Z,57.78
2022-12-31T04:40:19.708Z,57.75
2022-12-31T04:42:47.202Z,59.54
2022-12-31T04:45:15.084Z,58.90
2022-12-31T04:47:43.099Z,58.86
2022-12-31T04:50:10.888Z,59.58
2022-12-31T04:52:42.702Z,61.31
2022-12-31T04:55:12.100Z,61.89
2022-12-31T04:57:41.696Z,61.51
2022-12-31T05:00:09.409Z,60.90
2022-12-31T05:02:39.323Z,60.70
2022-12-31T05:05:07.230Z,60.54
2022-12-31T05:07:36.001Z,61.75
2022-12-31T05:10:04.008Z,63.07
2022-12-31T05:12:31.463Z,64.06
2022-12-31T05:14:58.975Z,64.51
2022-12-31T05:17:27.184Z,65.58
2022-12-31T05:19:54.549Z,66.25
2022-12-31T05:22:30.783Z,67.04
2022-12-31T05:24:59.315Z,65.60
2022-12-31T05:27:28.010Z,65.16
2022-12-31T05:29:55.249Z,65.35
2022-12-31T05:32:24.791Z,65.07
2022-12-31T05:34:53.797Z,63.69
2022-12-31T05:37:21.025Z,64.48
2022-12-31T05:39:48.731Z,64.49
2022-12-31T05:42:16.041Z,63.71
2022-12-31T05:44:43.197Z,63.06
2022-12-31T05:47:10.589Z,63.98
2022-12-31T05:49:37.851Z,62.82
2022-12-31T05:52:05.037Z,61.85
2022-12-31T05:54:32.306Z,61.27
2022-12-31T05:56:59.968Z,61.39
2022-12-31T05:59:27.094Z,60.86
2022-12-31T06:01:54.510Z,60.38
2022-12-31T06:04:21.765Z,61.17
2022-12-31T06:06:49.341Z,60.66
2022-12-31T06:09:18.418Z,60.67
2022-12-31T06:11:47.031Z,60.02
2022-12-31T06:14:14.830Z,59.97
2022-12-31T06:16:42.467Z,59.79
2022-12-31T06:19:10.265Z,60.84
2022-12-31T06:21:37.680Z,60.10
2022-12-31T06:24:05.507Z,60.94
2022-12-31T06:26:32.964Z,61.27
2022-12-31T06:29:00.280Z,60.89
2022-12-31T06:31:27.796Z,60.54
2022-12-31T06:33:55.304Z,60.78
2022-12-31T06:36:22.680Z,60.73
2022-12-31T06:38:50.601Z,61.58
2022-12-31T06:41:19.069Z,61.66
2022-12-31T06:43:46.672Z,62.17
2022-12-31T06:46:17.738Z,62.01
2022-12-31T06:48:45.289Z,61.33
2022-12-31T06:51:17.427Z,62.04
2022-12-31T06:53:46.976Z,62.08
2022-12-31T06:56:15.728Z,61.51
2022-12-31T06:58:43.725Z,62.24
2022-12-31T07:01:48.508Z,62.54
2022-12-31T07:04:52.784Z,62.38
2022-12-31T07:07:46.521Z,62.80
2022-12-31T07:10:39.393Z,62.03
2022-12-31T07:13:45.371Z,62.21
2022-12-31T07:16:18.661Z,62.10
2022-12-31T07:18:51.577Z,62.38
2022-12-31T07:21:28.243Z,62.16
2022-12-31T07:23:55.948Z,61.47
2022-12-31T07:26:26.032Z,60.79
2022-12-31T07:29:29.215Z,62.26
2022-12-31T07:32:14.943Z,62.00
2022-12-31T07:35:05.159Z,62.29
2022-12-31T07:37:54.128Z,62.42
2022-12-31T07:40:27.532Z,62.93
2022-12-31T07:43:03.268Z,62.52
2022-12-31T07:45:51.496Z,62.15
2022-12-31T07:48:27.758Z,62.92
2022-12-31T07:50:56.798Z,62.20
2022-12-31T07:53:26.119Z,61.39
2022-12-31T07:56:00.147Z,61.60
2022-12-31T07:58:27.359Z,61.42
2022-12-31T08:00:58.164Z,61.73
2022-12-31T08:03:31.605Z,62.27
2022-12-31T08:06:19.520Z,62.60
2022-12-31T08:09:12.869Z,62.07
2022-12-31T08:11:54.229Z,62.43
2022-12-31T08:14:22.348Z,62.64
2022-12-31T08:16:50.329Z,63.11
2022-12-31T08:19:28.886Z,63.82
2022-12-31T08:22:14.565Z,64.36
2022-12-31T08:24:52.908Z,63.93
2022-12-31T08:27:38.587Z,63.59
2022-12-31T08:30:10.928Z,63.91
2022-12-31T08:33:16.003Z,64.23
2022-12-31T08:35:52.985Z,63.41
2022-12-31T08:38:43.662Z,63.38
2022-12-31T08:41:29.941Z,63.22
2022-12-31T08:44:20.435Z,63.45
2022-12-31T08:47:00.165Z,63.32
2022-12-31T08:49:28.834Z,62.64
2022-12-31T08:51:57.106Z,62.80
2022-12-31T08:54:24.781Z,63.37
2022-12-31T08:57:10.970Z,63.51
2022-12-31T09:00:12.058Z,63.27
2022-12-31T09:02:51.298Z,62.50
2022-12-31T09:05:25.836Z,62.27
2022-12-31T09:08:22.980Z,62.87
2022-12-31T09:11:22.616Z,62.63
2022-12-31T09:14:06.577Z,62.77
2022-12-31T09:16:57.227Z,63.92
2022-12-31T09:19:24.572Z,64.37
2022-12-31T09:21:52.092Z,64.65
2022-12-31T09:24:19.772Z,65.11
2022-12-31T09:27:31.126Z,66.49
2022-12-31T09:30:11.720Z,66.84
2022-12-31T09:33:12.932Z,66.97
2022-12-31T09:35:56.166Z,67.61
2022-12-31T09:38:44.309Z,68.25
2022-12-31T09:41:36.375Z,68.30
2022-12-31T09:44:19.110Z,68.52
2022-12-31T09:47:04.337Z,68.49
2022-12-31T09:49:34.663Z,67.48
2022-12-31T09:52:25.947Z,67.27
2022-12-31T09:54:59.418Z,66.35
2022-12-31T09:58:15.608Z,66.99
2022-12-31T10:01:07.779Z,67.18
2022-12-31T10:03:53.699Z,67.12
2022-12-31T10:06:29.276Z,67.23
2022-12-31T10:09:06.052Z,67.08
2022-12-31T10:11:51.689Z,67.46
2022-12-31T10:14:47.426Z,68.37
2022-12-31T10:17:30.156Z,67.34
2022-12-31T10:20:28.218Z,68.55
2022-12-31T10:22:55.722Z,67.77
2022-12-31T10:25:50.194Z,68.79
2022-12-31T10:28:49.266Z,68.87
2022-12-31T10:31:40.501Z,68.03
2022-12-31T10:34:22.730Z,67.77
2022-12-31T10:37:11.276Z,67.73
2022-12-31T10:39:51.855Z,66.81
2022-12-31T10:42:25.196Z,66.81
2022-12-31T10:45:29.998Z,67.18
2022-12-31T10:47:59.926Z,66.46
2022-12-31T10:51:05.620Z,66.95
2022-12-31T10:53:35.605Z,66.70
2022-12-31T10:56:54.266Z,67.29
2022-12-31T10:59:24.226Z,67.11
2022-12-31T11:02:07.017Z,66.47
2022-12-31T11:05:03.593Z,65.79
2022-12-31T11:07:56.770Z,65.81
2022-12-31T11:10:50.301Z,65.42
2022-12-31T11:13:42.499Z,65.22
2022-12-31T11:16:20.534Z,64.55
2022-12-31T11:19:10.296Z,64.12
2022-12-31T11:21:56.363Z,64.17
2022-12-31T11:24:26.627Z,63.67
2022-12-31T11:27:33.701Z,63.31
2022-12-31T11:30:06.141Z,63.53
2022-12-31T11:32:52.287Z,63.99
2022-12-31T11:35:32.894Z,64.25
2022-12-31T11:38:23.443Z,64.21
2022-12-31T11:41:35.291Z,64.58
2022-12-31T11:44:30.650Z,64.51
2022-12-31T11:47:19.829Z,64.37
2022-12-31T11:50:15.490Z,63.53
2022-12-31T11:52:55.375Z,63.44
2022-12-31T11:55:41.301Z,63.49
2022-12-31T11:58:15.948Z,63.22
2022-12-31T12:00:54.845Z,63.41
2022-12-31T12:03:23.378Z,63.28
2022-12-31T12:05:51.639Z,63.98
2022-12-31T12:08:18.961Z,64.27
2022-12-31T12:10:51.110Z,64.38
2022-12-31T12:13:18.310Z,64.67
2022-12-31T12:15:49.637Z,64.77
2022-12-31T12:18:44.282Z,64.56
2022-12-31T12:21:22.422Z,63.98
2022-12-31T12:24:03.170Z,63.68
2022-12-31T12:26:41.934Z,63.19
2022-12-31T12:29:15.531Z,62.43
2022-12-31T12:31:43.483Z,62.73
2022-12-31T12:34:29.293Z,62.92
2022-12-31T12:36:56.904Z,62.63
2022-12-31T12:39:29.895Z,62.87
2022-12-31T12:42:15.467Z,62.54
2022-12-31T12:44:42.977Z,62.16
2022-12-31T12:47:16.361Z,62.75
2022-12-31T12:49:49.590Z,63.23
2022-12-31T12:52:35.898Z,63.72
2022-12-31T12:55:12.127Z,64.03
2022-12-31T12:57:46.631Z,63.46
2022-12-31T13:00:25.676Z,63.72
2022-12-31T13:03:10.476Z,63.56
2022-12-31T13:05:58.250Z,64.41
2022-12-31T13:08:25.567Z,64.29
2022-12-31T13:11:21.798Z,63.71
2022-12-31T13:14:13.649Z,63.45
2022-12-31T13:16:47.662Z,63.20
2022-12-31T13:19:39.250Z,64.04
2022-12-31T13:22:34.416Z,64.34
2022-12-31T13:25:24.846Z,63.69
2022-12-31T13:27:54.375Z,64.29
2022-12-31T13:30:31.102Z,64.55
2022-12-31T13:33:04.373Z,64.35
2022-12-31T13:35:47.054Z,64.76
2022-12-31T13:38:23.821Z,63.94
2022-12-31T13:41:18.213Z,64.15
2022-12-31T13:43:58.807Z,63.67
2022-12-31T13:46:29.192Z,63.28
2022-12-31T13:49:05.179Z,63.29
2022-12-31T13:51:49.567Z,62.98
2022-12-31T13:54:29.152Z,62.57
2022-12-31T13:57:02.147Z,62.64
2022-12-31T13:59:35.696Z,63.49
2022-12-31T14:02:27.788Z,63.63
2022-12-31T14:05:21.055Z,63.64
2022-12-31T14:07:54.001Z,62.94
2022-12-31T14:10:45.322Z,63.33
2022-12-31T14:13:34.852Z,63.98
2022-12-31T14:16:12.585Z,64.00
2022-12-31T14:18:47.916Z,64.51
2022-12-31T14:21:23.361Z,64.84
2022-12-31T14:24:09.899Z,65.06
2022-12-31T14:26:45.736Z,63.86
2022-12-31T14:29:15.742Z,63.94
2022-12-31T14:32:24.304Z,64.75
2022-12-31T14:35:06.960Z,64.58
2022-12-31T14:37:50.719Z,65.50
2022-12-31T14:40:35.757Z,65.79
2022-12-31T14:43:35.633Z,65.71
2022-12-31T14:46:31.158Z,65.82
2022-12-31T14:49:36.161Z,66.22
2022-12-31T14:52:19.933Z,66.33
2022-12-31T14:54:58.570Z,66.86
2022-12-31T14:57:54.271Z,66.71
2022-12-31T15:00:35.468Z,67.24
2022-12-31T15:03:06.814Z,67.93
2022-12-31T15:05:36.848Z,68.30
2022-12-31T15:08:22.262Z,68.32
2022-12-31T15:11:01.438Z,68.48
2022-12-31T15:13:34.499Z,68.39
2022-12-31T15:16:07.754Z,68.20
2022-12-31T15:18:54.036Z,68.91
2022-12-31T15:22:00.217Z,69.76
2022-12-31T15:24:31.272Z,69.16
2022-12-31T15:27:01.987Z,70.06
2022-12-31T15:29:36.676Z,70.35
2022-12-31T15:32:08.089Z,69.78
2022-12-31T15:34:37.211Z,69.31
2022-12-31T15:37:25.935Z,69.10
2022-12-31T15:40:25.323Z,68.85
2022-12-31T15:42:59.083Z,68.84
2022-12-31T15:45:41.354Z,69.50
2022-12-31T15:48:24.055Z,69.22
2022-12-31T15:50:54.822Z,68.73
2022-12-31T15:53:32.516Z,70.11
2022-12-31T15:56:02.212Z,69.77
2022-12-31T15:58:38.180Z,70.22
2022-12-31T16:01:24.212Z,70.24
2022-12-31T16:04:06.208Z,69.58
2022-12-31T16:06:37.226Z,69.78
2022-12-31T16:09:09.725Z,69.71
2022-12-31T16:11:42.092Z,70.30
2022-12-31T16:14:20.164Z,70.29
2022-12-31T16:16:58.038Z,70.25
2022-12-31T16:19:31.723Z,70.21
2022-12-31T16:22:03.784Z,70.05
2022-12-31T16:24:33.782Z,69.34
2022-12-31T16:27:07.621Z,69.57
2022-12-31T16:29:37.545Z,69.72
2022-12-31T16:32:05.024Z,69.51
2022-12-31T16:34:38.595Z,69.39
2022-12-31T16:37:17.507Z,68.81
2022-12-31T16:39:56.897Z,68.12
2022-12-31T16:42:27.039Z,67.74
2022-12-31T16:44:56.995Z,68.39
2022-12-31T16:47:36.667Z,68.98
2022-12-31T16:50:13.926Z,68.02
2022-12-31T16:52:44.686Z,67.56
2022-12-31T16:55:23.753Z,67.24
2022-12-31T16:57:58.924Z,66.53
2022-12-31T17:00:26.999Z,66.04
2022-12-31T17:02:57.217Z,65.83
2022-12-31T17:05:26.516Z,65.69
2022-12-31T17:07:54.586Z,65.21
2022-12-31T17:10:26.980Z,65.10
2022-12-31T17:13:28.234Z,65.58
2022-12-31T17:15:52.516Z,66.08
2022-12-31T17:18:24.333Z,66.49
2022-12-31T17:20:53.644Z,67.47
2022-12-31T17:23:33.977Z,68.14
2022-12-31T17:26:08.474Z,68.07
2022-12-31T17:29:03.374Z,69.17
2022-12-31T17:31:36.923Z,69.31
2022-12-31T17:34:13.530Z,69.61
2022-12-31T17:36:58.785Z,70.16
2022-12-31T17:39:28.057Z,70.22
2022-12-31T17:41:57.946Z,70.54
2022-12-31T17:44:29.143Z,71.14
2022-12-31T17:46:56.604Z,71.15
2022-12-31T17:49:30.196Z,72.14
2022-12-31T17:51:57.713Z,72.02
2022-12-31T17:54:24.933Z,72.30
2022-12-31T17:56:53.036Z,72.39
2022-12-31T17:59:29.799Z,73.15
2022-12-31T18:02:02.525Z,72.80
2022-12-31T18:04:29.809Z,73.29
2022-12-31T18:06:57.133Z,73.14
2022-12-31T18:09:24.357Z,73.88
2022-12-31T18:11:54.341Z,73.47
2022-12-31T18:14:24.218Z,73.41
2022-12-31T18:16:51.420Z,73.80
2022-12-31T18:19:45.681Z,72.86
2022-12-31T18:22:05.877Z,72.72
2022-12-31T18:24:33.351Z,72.82
2022-12-31T18:27:00.690Z,72.77
2022-12-31T18:29:27.811Z,72.44
2022-12-31T18:31:55.183Z,72.36
2022-12-31T18:34:22.405Z,72.42
2022-12-31T18:36:49.534Z,72.31
2022-12-31T18:39:17.007Z,73.32
2022-12-31T18:41:49.175Z,72.73
2022-12-31T18:44:16.592Z,72.54
2022-12-31T18:46:43.841Z,72.18
2022-12-31T18:49:11.124Z,72.07
2022-12-31T18:51:38.437Z,71.46
2022-12-31T18:54:10.035Z,71.69
2022-12-31T18:56:41.829Z,71.64
2022-12-31T18:59:13.736Z,71.56
2022-12-31T19:01:41.696Z,71.35
2022-12-31T19:04:24.757Z,71.32
2022-12-31T19:06:54.821Z,70.77
2022-12-31T19:09:44.714Z,70.95
2022-12-31T19:12:14.532Z,70.90
2022-12-31T19:14:41.781Z,70.05
2022-12-31T19:19:35.184Z,70.20
2022-12-31T19:22:03.158Z,70.34
2022-12-31T19:24:30.539Z,69.86
2022-12-31T19:26:57.735Z,70.13
2022-12-31T19:29:28.690Z,69.99
2022-12-31T19:31:55.996Z,69.99
2022-12-31T19:34:23.369Z,69.73
2022-12-31T19:36:50.529Z,70.00
2022-12-31T19:39:20.408Z,70.53
2022-12-31T19:41:54.731Z,70.45
2022-12-31T19:44:26.684Z,70.22
2022-12-31T19:46:54.444Z,70.40
2022-12-31T19:49:22.059Z,69.70
2022-12-31T19:51:49.365Z,69.55
2022-12-31T19:54:16.708Z,69.50
2022-12-31T19:56:44.143Z,69.63
2022-12-31T19:59:11.956Z,69.51
2022-12-31T20:01:39.557Z,69.04
2022-12-31T20:04:07.140Z,69.25
2022-12-31T20:06:35.444Z,69.24
2022-12-31T20:09:03.617Z,69.37
2022-12-31T20:11:31.631Z,69.35
2022-12-31T20:13:58.861Z,69.64
2022-12-31T20:16:33.983Z,69.69
2022-12-31T20:19:01.626Z,69.68
2022-12-31T20:21:29.601Z,70.01
2022-12-31T20:23:56.922Z,70.31
2022-12-31T20:26:25.106Z,69.86
2022-12-31T20:28:53.456Z,69.76
2022-12-31T20:31:23.694Z,69.33
2022-12-31T20:33:51.565Z,69.56
2022-12-31T20:36:18.749Z,69.67
2022-12-31T20:38:46.270Z,69.66
2022-12-31T20:41:22.064Z,69.81
2022-12-31T20:43:50.372Z,69.00
2022-12-31T20:46:25.056Z,69.40
2022-12-31T20:48:54.916Z,68.97
2022-12-31T20:51:22.938Z,69.31
2022-12-31T20:54:05.010Z,70.22
2022-12-31T20:56:35.798Z,69.34
2022-12-31T20:59:04.314Z,69.75
2022-12-31T21:01:55.095Z,68.91
2022-12-31T21:04:19.420Z,68.96
2022-12-31T21:06:48.262Z,68.97
2022-12-31T21:09:15.496Z,69.32
2022-12-31T21:12:01.536Z,69.61
2022-12-31T21:14:29.250Z,69.41
2022-12-31T21:16:56.554Z,69.06
2022-12-31T21:19:23.676Z,68.61
2022-12-31T21:21:51.021Z,68.44
2022-12-31T21:24:23.605Z,68.96
2022-12-31T21:26:51.514Z,69.05
2022-12-31T21:29:18.823Z,69.27
2022-12-31T21:31:46.158Z,69.09
2022-12-31T21:34:13.559Z,69.10
2022-12-31T21:36:40.674Z,69.40
2022-12-31T21:39:07.764Z,69.04
2022-12-31T21:41:53.030Z,69.46
2022-12-31T21:44:24.697Z,69.10
2022-12-31T21:47:33.368Z,69.67
2022-12-31T21:49:44.030Z,69.52
2022-12-31T21:52:27.914Z,69.52
2022-12-31T21:55:14.953Z,69.39
2022-12-31T21:58:15.641Z,68.96
2022-12-31T22:00:49.578Z,67.89
2022-12-31T22:03:27.964Z,68.51
2022-12-31T22:06:03.040Z,67.72
2022-12-31T22:08:31.781Z,67.72
2022-12-31T22:10:58.976Z,67.33
2022-12-31T22:13:26.222Z,67.62
2022-12-31T22:16:00.414Z,67.72
2022-12-31T22:18:34.141Z,67.84
2022-12-31T22:21:13.725Z,68.12
2022-12-31T22:23:46.627Z,68.23
2022-12-31T22:26:15.993Z,67.42
2022-12-31T22:28:44.318Z,68.15
2022-12-31T22:31:24.728Z,67.98
2022-12-31T22:33:52.597Z,67.22
2022-12-31T22:36:22.311Z,66.77
2022-12-31T22:38:51.584Z,66.01
2022-12-31T22:41:20.868Z,65.18
2022-12-31T22:43:58.514Z,64.74
2022-12-31T22:46:30.538Z,64.67
2022-12-31T22:48:59.368Z,65.02
2022-12-31T22:51:56.582Z,64.89
2022-12-31T22:54:15.385Z,64.18
2022-12-31T22:56:42.914Z,64.31
2022-12-31T22:59:11.135Z,65.09
2022-12-31T23:01:38.522Z,65.00
2022-12-31T23:04:06.005Z,65.16
2022-12-31T23:06:43.701Z,64.41
2022-12-31T23:09:31.091Z,64.16
2022-12-31T23:12:00.812Z,64.03
2022-12-31T23:14:49.392Z,63.90
2022-12-31T23:17:38.449Z,64.45
2022-12-31T23:20:29.905Z,64.04
2022-12-31T23:23:07.087Z,64.38
2022-12-31T23:25:39.127Z,64.96
2022-12-31T23:28:07.558Z,64.70
2022-12-31T23:30:38.714Z,64.32
2022-12-31T23:33:07.083Z,64.94
2022-12-31T23:35:36.845Z,65.05
2022-12-31T23:38:06.270Z,65.39
2022-12-31T23:40:36.485Z,64.87
2022-12-31T23:43:08.249Z,65.49
2022-12-31T23:45:36.534Z,64.75
2022-12-31T23:48:04.094Z,64.15
2022-12-31T23:50:31.430Z,63.91
2022-12-31T23:52:59.046Z,63.55
2022-12-31T23:55:26.406Z,63.66
2022-12-31T23:57:53.898Z,63.85
